Wright Patterson Air Force Base
KFFO : now visible

Airfield :











YOU CAN JOIN US ON...

 
LOGIN :

Register | Disclaimer

   EN    FR    IT 

 









Legend :    VFR   Marginal VFR   IFR   Intensive IFR   Very Intensive IFR
Visi :
Ceiling :
>= 8 km
>= 3000ft
5 to 8 km
1000 to 3000 ft
1500m to 5 km
500 to 1000 ft
800 to 1500m
200 to 500 ft
< 800m
< 200 ft
Symbols :   Thunderstorms  Fog  Heavy snow  Heavy precipitations  Wind > 20 kt






- Airport Elevation : 823 ft


KFFO - Wright Patterson Air Force Base

CURRENT METAR :
  • 230156Z AUTO 21005KT 10SM CLR 03/M03 A3013 RMK AO2 SLP212 T00331033

EXPIRED METARs :
  • 230056Z AUTO 24004KT 10SM CLR 06/M05 A3011 RMK AO2 SLP204 T00611047
  • 222356Z AUTO 27010KT 10SM FEW060 09/M05 A3011 RMK AO2 SLP204 T00871052 10104 20076 51003

TAF COR TAF KFFO
Valid from the 22 at 22:00 until the 24 at 01:00 UTC


222259Z 2222/2401 27010G15KT 9999 SCT060 QNH3009INS
BECMG 2301/2302 25009KT 9999 FEW060 QNH3010INS
BECMG 2302/2303 22006KT 9999 SKC QNH3011INS
BECMG 2313/2314 22009KT 9999 SCT120 BKN150 QNH3014INS
BECMG 2321/2322 21012G18KT 9999 BKN040 OVC055 620404 QNH3004INS TX12/2319Z TN00/2310Z
KZID FIR / North America



MET'MAP, your aeronautical weather chart ! - Copyright ORBIFLY December 2007 - Disclaimer

ORBIFLY MET'MAP TEAM :

Programming & Development : Alexandra Zaïnal
Concept & original design : Baudouin d'Aumeries
Assistance for programming : Marc-Olivier Méhu
Technical & hardware support : Manuel Goepfert

Contact : metmap@orbifly.com




SOURCES & CREDITS :

   NOAA       Earth
Advisory